createdAt,value
2023-05-01T00:03:58.753Z,7.10
2023-05-01T00:14:02.036Z,6.10
2023-05-01T00:24:05.635Z,7.10
2023-05-01T00:34:09.610Z,7.00
2023-05-01T00:44:12.679Z,7.10
2023-05-01T00:54:15.820Z,6.80
2023-05-01T01:04:18.904Z,6.70
2023-05-01T01:14:32.309Z,7.70
2023-05-01T01:25:00.652Z,7.10
2023-05-01T01:35:08.211Z,5.60
2023-05-01T01:45:22.492Z,6.40
2023-05-01T01:55:29.713Z,6.40
2023-05-01T02:15:40.439Z,5.30
2023-05-01T02:25:45.615Z,4.90
2023-05-01T02:35:48.771Z,6.00
2023-05-01T02:45:55.289Z,5.20
2023-05-01T02:55:59.477Z,5.00
2023-05-01T03:06:03.488Z,5.00
2023-05-01T03:16:06.918Z,4.50
2023-05-01T03:26:11.161Z,5.70
2023-05-01T03:36:14.380Z,5.60
2023-05-01T03:46:17.720Z,5.40
2023-05-01T03:56:21.546Z,7.10
2023-05-01T04:06:25.454Z,5.60
2023-05-01T04:16:28.895Z,5.50
2023-05-01T04:26:32.231Z,6.10
2023-05-01T04:36:37.250Z,5.60
2023-05-01T04:46:40.724Z,5.90
2023-05-01T04:56:43.924Z,6.30
2023-05-01T05:06:47.212Z,6.80
2023-05-01T05:16:53.002Z,6.30
2023-05-01T05:26:57.159Z,6.80
2023-05-01T05:37:00.348Z,5.90
2023-05-01T05:47:04.011Z,5.70
2023-05-01T05:57:09.746Z,5.60
2023-05-01T06:07:16.040Z,5.70
2023-05-01T06:17:19.151Z,5.00
2023-05-01T06:27:22.350Z,3.30
2023-05-01T06:37:25.637Z,3.60
2023-05-01T06:47:28.806Z,2.80
2023-05-01T06:57:31.966Z,2.90
2023-05-01T07:07:35.268Z,2.50
2023-05-01T07:17:38.618Z,2.50
2023-05-01T07:27:41.915Z,2.40
2023-05-01T07:37:45.182Z,2.40
2023-05-01T07:47:48.410Z,2.30
2023-05-01T07:57:51.666Z,2.20
2023-05-01T08:07:54.970Z,2.30
2023-05-01T08:17:58.105Z,2.10
2023-05-01T08:28:01.775Z,1.60
2023-05-01T08:38:04.933Z,1.70
2023-05-01T08:48:10.550Z,2.30
2023-05-01T08:58:15.460Z,1.80
2023-05-01T09:08:18.522Z,2.10
2023-05-01T09:18:21.826Z,1.90
2023-05-01T09:28:45.730Z,2.60
2023-05-01T09:38:49.010Z,1.80
2023-05-01T09:48:55.708Z,1.50
2023-05-01T09:59:15.545Z,2.40
2023-05-01T10:09:28.298Z,2.40
2023-05-01T10:19:31.881Z,2.50
2023-05-01T10:29:37.140Z,2.00
2023-05-01T10:39:40.847Z,1.80
2023-05-01T10:50:04.914Z,3.70
2023-05-01T11:00:08.256Z,2.20
2023-05-01T11:10:26.938Z,2.10
2023-05-01T11:20:35.972Z,1.80
2023-05-01T11:30:40.719Z,1.60
2023-05-01T11:40:44.204Z,1.90
2023-05-01T11:50:47.588Z,1.80
2023-05-01T12:00:51.099Z,1.90
2023-05-01T12:10:58.937Z,1.70
2023-05-01T12:21:02.318Z,1.80
2023-05-01T12:31:06.434Z,1.60
2023-05-01T12:41:12.313Z,2.10
2023-05-01T12:51:20.562Z,2.20
2023-05-01T13:01:30.263Z,2.20
2023-05-01T13:11:33.722Z,2.30
2023-05-01T13:21:48.153Z,2.50
2023-05-01T13:31:51.269Z,2.20
2023-05-01T13:41:54.946Z,2.40
2023-05-01T13:51:57.983Z,2.20
2023-05-01T14:02:01.384Z,2.00
2023-05-01T14:12:04.645Z,2.30
2023-05-01T14:22:08.293Z,2.40
2023-05-01T14:32:11.916Z,2.60
2023-05-01T14:42:15.145Z,2.40
2023-05-01T14:52:22.563Z,2.30
2023-05-01T15:02:25.876Z,2.60
2023-05-01T15:12:29.404Z,2.20
2023-05-01T15:22:32.684Z,2.40
2023-05-01T15:32:37.446Z,2.70
2023-05-01T15:42:40.989Z,2.90
2023-05-01T15:52:44.203Z,2.70
2023-05-01T16:03:14.078Z,2.60
2023-05-01T16:13:17.498Z,2.80
2023-05-01T16:23:22.125Z,3.10
2023-05-01T16:33:25.443Z,3.00
2023-05-01T16:43:29.910Z,4.00
2023-05-01T16:53:33.164Z,3.00
2023-05-01T17:03:37.160Z,4.30
2023-05-01T17:13:40.443Z,4.20
2023-05-01T17:23:43.808Z,4.10
2023-05-01T17:33:47.603Z,5.40
2023-05-01T17:43:50.973Z,5.20
2023-05-01T17:53:54.007Z,4.50
2023-05-01T18:03:57.995Z,7.10
2023-05-01T18:14:01.904Z,8.60
2023-05-01T18:24:05.523Z,9.20
2023-05-01T18:34:34.038Z,11.30
2023-05-01T18:54:40.263Z,13.10
2023-05-01T19:04:56.673Z,14.10
2023-05-01T19:15:00.426Z,11.40
2023-05-01T19:25:03.845Z,29.10
2023-05-01T19:35:11.745Z,24.30
2023-05-01T19:45:17.030Z,19.20
2023-05-01T19:55:21.488Z,21.40
2023-05-01T20:05:28.368Z,19.00
2023-05-01T20:15:31.948Z,16.80
2023-05-01T20:25:35.025Z,15.60
2023-05-01T20:35:38.569Z,14.80
2023-05-01T20:45:41.772Z,18.00
2023-05-01T20:55:45.857Z,15.60
2023-05-01T21:05:49.004Z,17.20
2023-05-01T21:15:52.784Z,16.30
2023-05-01T21:25:56.157Z,14.90
2023-05-01T21:35:59.661Z,14.90
2023-05-01T21:46:03.051Z,11.50
2023-05-01T21:56:07.084Z,12.80
2023-05-01T22:06:10.497Z,9.80
2023-05-01T22:16:14.766Z,12.30
2023-05-01T22:26:43.278Z,12.20
2023-05-01T22:36:46.554Z,12.60
2023-05-01T22:47:15.132Z,14.80
2023-05-01T22:57:18.741Z,13.70
2023-05-01T23:07:22.541Z,9.10
2023-05-01T23:17:31.321Z,9.30
2023-05-01T23:27:40.402Z,10.00
2023-05-01T23:37:44.057Z,9.10
2023-05-01T23:47:47.197Z,9.00
2023-05-01T23:57:50.232Z,7.90
